createdAt,value
2023-05-04T00:00:17.280Z,99.30
2023-05-04T00:02:48.363Z,99.50
2023-05-04T00:05:19.080Z,99.60
2023-05-04T00:07:49.585Z,99.10
2023-05-04T00:10:19.998Z,99.40
2023-05-04T00:12:50.489Z,99.20
2023-05-04T00:15:24.122Z,99.40
2023-05-04T00:17:55.297Z,99.50
2023-05-04T00:20:26.649Z,99.70
2023-05-04T00:22:57.924Z,99.60
2023-05-04T00:25:28.631Z,99.60
2023-05-04T00:27:59.773Z,99.70
2023-05-04T00:30:33.160Z,99.70
2023-05-04T00:33:04.320Z,99.50
2023-05-04T00:35:35.474Z,99.90
2023-05-04T00:38:07.354Z,99.90
2023-05-04T00:40:38.270Z,99.90
2023-05-04T00:43:08.812Z,99.90
2023-05-04T00:45:42.778Z,99.90
2023-05-04T00:48:13.577Z,99.90
2023-05-04T00:50:44.650Z,99.90
2023-05-04T00:53:15.237Z,99.90
2023-05-04T00:55:45.919Z,99.90
2023-05-04T00:58:16.597Z,99.90
2023-05-04T01:00:49.634Z,99.90
2023-05-04T01:03:21.022Z,99.90
2023-05-04T01:06:11.162Z,99.90
2023-05-04T01:08:44.567Z,99.90
2023-05-04T01:11:20.057Z,99.90
2023-05-04T01:13:51.471Z,99.90
2023-05-04T01:16:24.498Z,99.90
2023-05-04T01:18:54.916Z,99.90
2023-05-04T01:21:25.303Z,99.90
2023-05-04T01:23:58.424Z,99.90
2023-05-04T01:26:32.056Z,99.90
2023-05-04T01:29:11.329Z,99.90
2023-05-04T01:31:42.839Z,99.90
2023-05-04T01:34:14.008Z,99.90
2023-05-04T01:36:45.291Z,99.90
2023-05-04T01:39:18.766Z,99.90
2023-05-04T01:41:49.218Z,99.90
2023-05-04T01:44:19.688Z,99.90
2023-05-04T01:46:50.047Z,99.90
2023-05-04T01:49:20.514Z,99.90
2023-05-04T01:51:51.069Z,99.90
2023-05-04T01:54:24.194Z,99.90
2023-05-04T01:56:54.644Z,99.90
2023-05-04T01:59:24.997Z,99.90
2023-05-04T02:01:55.503Z,99.90
2023-05-04T02:04:26.018Z,99.90
2023-05-04T02:06:56.588Z,99.90
2023-05-04T02:09:29.670Z,99.90
2023-05-04T02:12:00.051Z,99.90
2023-05-04T02:14:30.750Z,99.90
2023-05-04T02:17:01.210Z,99.90
2023-05-04T02:19:31.655Z,99.90
2023-05-04T02:22:02.135Z,99.90
2023-05-04T02:24:36.269Z,99.90
2023-05-04T02:27:06.706Z,99.90
2023-05-04T02:29:37.093Z,99.90
2023-05-04T02:32:08.021Z,99.90
2023-05-04T02:34:39.022Z,99.90
2023-05-04T02:37:09.411Z,99.90
2023-05-04T02:39:42.358Z,99.90
2023-05-04T02:42:12.863Z,99.90
2023-05-04T02:44:43.337Z,99.90
2023-05-04T02:47:13.783Z,99.90
2023-05-04T02:49:44.226Z,99.90
2023-05-04T02:52:14.793Z,99.90
2023-05-04T02:54:47.857Z,99.90
2023-05-04T02:57:18.329Z,99.90
2023-05-04T02:59:48.745Z,99.90
2023-05-04T03:02:19.092Z,99.90
2023-05-04T03:04:49.520Z,99.90
2023-05-04T03:07:19.914Z,99.90
2023-05-04T03:09:53.252Z,99.90
2023-05-04T03:12:24.361Z,99.90
2023-05-04T03:14:54.786Z,99.90
2023-05-04T03:17:25.221Z,99.90
2023-05-04T03:19:55.798Z,99.90
2023-05-04T03:22:26.586Z,99.90
2023-05-04T03:24:59.668Z,99.90
2023-05-04T03:27:30.080Z,99.90
2023-05-04T03:30:00.820Z,99.90
2023-05-04T03:32:31.719Z,99.90
2023-05-04T03:37:46.850Z,99.90
2023-05-04T03:40:22.652Z,99.90
2023-05-04T03:42:54.322Z,99.90
2023-05-04T03:45:28.807Z,99.90
2023-05-04T03:48:01.233Z,99.90
2023-05-04T03:50:32.151Z,99.90
2023-05-04T03:53:02.504Z,99.90
2023-05-04T03:55:36.268Z,99.90
2023-05-04T03:58:07.190Z,99.90
2023-05-04T04:00:37.773Z,99.90
2023-05-04T04:03:16.218Z,99.90
2023-05-04T04:05:46.911Z,99.90
2023-05-04T04:08:17.323Z,99.90
2023-05-04T04:10:50.364Z,99.90
2023-05-04T04:13:20.954Z,99.90
2023-05-04T04:15:51.774Z,99.90
2023-05-04T04:18:22.183Z,99.90
2023-05-04T04:20:52.993Z,99.90
2023-05-04T04:23:23.412Z,99.90
2023-05-04T04:25:56.940Z,99.90
2023-05-04T04:28:27.375Z,99.90
2023-05-04T04:30:57.761Z,99.90
2023-05-04T04:33:28.179Z,99.90
2023-05-04T04:35:58.578Z,99.90
2023-05-04T04:38:28.981Z,99.90
2023-05-04T04:41:01.957Z,99.90
2023-05-04T04:43:33.894Z,99.90
2023-05-04T04:46:04.640Z,99.90
2023-05-04T04:48:35.081Z,99.90
2023-05-04T04:51:05.930Z,99.90
2023-05-04T04:53:36.322Z,99.90
2023-05-04T04:56:10.478Z,99.90
2023-05-04T04:58:40.877Z,99.90
2023-05-04T05:01:11.287Z,99.90
2023-05-04T05:03:41.672Z,99.90
2023-05-04T05:06:12.027Z,99.90
2023-05-04T05:08:44.155Z,99.90
2023-05-04T05:11:17.119Z,99.90
2023-05-04T05:13:47.549Z,99.90
2023-05-04T05:16:17.957Z,99.90
2023-05-04T05:18:48.365Z,99.90
2023-05-04T05:21:18.707Z,99.90
2023-05-04T05:23:49.123Z,99.90
2023-05-04T05:26:22.264Z,99.90
2023-05-04T05:28:52.705Z,99.90
2023-05-04T05:31:23.148Z,99.90
2023-05-04T05:33:54.125Z,99.90
2023-05-04T05:36:24.566Z,99.90
2023-05-04T05:38:55.090Z,99.90
2023-05-04T05:41:28.168Z,99.90
2023-05-04T05:43:58.502Z,99.90
2023-05-04T05:46:29.832Z,99.90
2023-05-04T05:49:00.220Z,99.90
2023-05-04T05:51:30.677Z,99.90
2023-05-04T05:54:01.076Z,99.90
2023-05-04T05:56:34.117Z,99.90
2023-05-04T05:59:04.465Z,99.90
2023-05-04T06:01:34.830Z,99.90
2023-05-04T06:04:05.398Z,99.90
2023-05-04T06:06:36.261Z,99.90
2023-05-04T06:09:06.735Z,99.90
2023-05-04T06:11:39.826Z,99.90
2023-05-04T06:14:10.170Z,99.90
2023-05-04T06:16:40.769Z,99.90
2023-05-04T06:19:11.392Z,99.90
2023-05-04T06:21:41.798Z,99.90
2023-05-04T06:24:12.320Z,99.90
2023-05-04T06:26:45.321Z,99.90
2023-05-04T06:29:15.773Z,99.90
2023-05-04T06:31:48.390Z,99.90
2023-05-04T06:34:20.017Z,99.90
2023-05-04T06:36:51.220Z,99.90
2023-05-04T06:39:21.622Z,99.90
2023-05-04T06:41:57.394Z,99.90
2023-05-04T06:44:29.725Z,99.90
2023-05-04T06:47:00.346Z,99.90
2023-05-04T06:49:33.889Z,99.90
2023-05-04T06:52:04.498Z,99.90
2023-05-04T06:54:34.973Z,99.90
2023-05-04T06:57:08.049Z,99.90
2023-05-04T06:59:38.481Z,99.90
2023-05-04T07:02:08.987Z,99.90
2023-05-04T07:04:39.574Z,99.90
2023-05-04T07:07:09.944Z,99.90
2023-05-04T07:09:40.487Z,99.90
2023-05-04T07:12:13.673Z,99.90
2023-05-04T07:14:44.315Z,99.90
2023-05-04T07:17:14.846Z,99.90
2023-05-04T07:19:45.217Z,99.90
2023-05-04T07:22:15.675Z,99.90
2023-05-04T07:24:46.962Z,99.90
2023-05-04T07:27:19.996Z,99.90
2023-05-04T07:29:51.163Z,99.90
2023-05-04T07:32:22.055Z,99.90
2023-05-04T07:34:52.559Z,99.90
2023-05-04T07:37:23.020Z,99.90
2023-05-04T07:39:53.473Z,99.90
2023-05-04T07:42:28.167Z,99.90
2023-05-04T07:44:58.560Z,99.90
2023-05-04T07:47:29.022Z,99.90
2023-05-04T07:49:59.404Z,99.90
2023-05-04T07:52:30.184Z,99.90
2023-05-04T07:55:00.587Z,99.90
2023-05-04T07:57:35.936Z,99.90
2023-05-04T08:00:07.212Z,99.90
2023-05-04T08:02:43.919Z,99.90
2023-05-04T08:05:14.450Z,99.90
2023-05-04T08:07:44.939Z,99.90
2023-05-04T08:10:15.381Z,99.90
2023-05-04T08:12:48.536Z,99.90
2023-05-04T08:15:19.002Z,99.90
2023-05-04T08:17:49.581Z,99.90
2023-05-04T08:20:21.740Z,99.90
2023-05-04T08:22:53.658Z,99.90
2023-05-04T08:25:24.736Z,99.90
2023-05-04T08:27:57.835Z,99.90
2023-05-04T08:30:29.268Z,99.90
2023-05-04T08:33:00.652Z,99.90
2023-05-04T08:35:31.070Z,99.90
2023-05-04T08:38:01.766Z,99.90
2023-05-04T08:40:32.195Z,99.90
2023-05-04T08:43:06.772Z,99.90
2023-05-04T08:45:40.625Z,99.90
2023-05-04T08:48:11.246Z,99.90
2023-05-04T08:50:42.446Z,99.90
2023-05-04T08:53:16.358Z,99.90
2023-05-04T08:55:48.344Z,99.90
2023-05-04T08:58:25.262Z,99.90
2023-05-04T09:00:56.290Z,99.90
2023-05-04T09:03:27.478Z,99.90
2023-05-04T09:05:58.200Z,99.90
2023-05-04T09:08:28.733Z,99.90
2023-05-04T09:10:59.094Z,99.90
2023-05-04T09:13:32.154Z,99.90
2023-05-04T09:16:04.182Z,99.90
2023-05-04T09:18:42.358Z,99.90
2023-05-04T09:21:14.028Z,99.90
2023-05-04T09:23:51.692Z,99.90
2023-05-04T09:26:31.003Z,99.90
2023-05-04T09:29:14.174Z,99.90
2023-05-04T09:31:48.754Z,99.90
2023-05-04T09:34:20.660Z,99.90
2023-05-04T09:37:02.210Z,99.90
2023-05-04T09:39:33.153Z,99.90
2023-05-04T09:42:05.226Z,99.90
2023-05-04T09:44:38.279Z,99.90
2023-05-04T09:47:08.753Z,99.90
2023-05-04T09:49:40.170Z,99.90
2023-05-04T09:52:11.189Z,99.90
2023-05-04T09:54:46.344Z,99.90
2023-05-04T09:57:17.781Z,99.90
2023-05-04T09:59:51.537Z,99.90
2023-05-04T10:02:23.392Z,99.90
2023-05-04T10:04:54.693Z,99.90
2023-05-04T10:07:25.435Z,99.90
2023-05-04T10:09:56.998Z,99.90
2023-05-04T10:12:27.464Z,99.90
2023-05-04T10:15:01.189Z,99.90
2023-05-04T10:17:53.822Z,99.90
2023-05-04T10:20:49.353Z,99.90
2023-05-04T10:23:45.676Z,99.90
2023-05-04T10:26:43.568Z,99.90
2023-05-04T10:29:23.509Z,99.90
2023-05-04T10:31:57.782Z,99.90
2023-05-04T10:34:29.516Z,99.90
2023-05-04T10:37:00.609Z,99.90
2023-05-04T10:39:33.265Z,99.90
2023-05-04T10:42:05.238Z,99.90
2023-05-04T10:44:37.661Z,99.90
2023-05-04T10:47:11.416Z,99.90
2023-05-04T10:49:41.791Z,99.90
2023-05-04T10:52:16.376Z,99.90
2023-05-04T10:54:47.140Z,99.90
2023-05-04T10:57:18.056Z,99.90
2023-05-04T10:59:58.213Z,99.90
2023-05-04T11:02:33.222Z,99.90
2023-05-04T11:05:05.499Z,99.90
2023-05-04T11:07:37.984Z,99.90
2023-05-04T11:10:09.898Z,99.90
2023-05-04T11:12:41.458Z,99.90
2023-05-04T11:15:13.166Z,99.90
2023-05-04T11:17:53.656Z,99.90
2023-05-04T11:20:25.257Z,99.90
2023-05-04T11:22:56.130Z,99.90
2023-05-04T11:25:30.828Z,99.90
2023-05-04T11:28:01.812Z,99.90
2023-05-04T11:30:36.792Z,99.90
2023-05-04T11:33:15.534Z,99.90
2023-05-04T11:35:49.231Z,99.90
2023-05-04T11:38:23.012Z,99.90
2023-05-04T11:40:53.829Z,99.90
2023-05-04T11:43:24.708Z,99.90
2023-05-04T11:45:56.399Z,99.90
2023-05-04T11:48:30.395Z,99.90
2023-05-04T11:51:00.971Z,99.90
2023-05-04T11:53:39.231Z,99.90
2023-05-04T11:56:10.340Z,99.90
2023-05-04T11:58:41.041Z,99.90
2023-05-04T12:01:11.474Z,99.90
2023-05-04T12:03:53.897Z,99.90
2023-05-04T12:06:35.169Z,99.90
2023-05-04T12:09:06.816Z,99.90
2023-05-04T12:11:38.662Z,99.90
2023-05-04T12:14:10.681Z,99.90
2023-05-04T12:16:43.240Z,99.90
2023-05-04T12:19:16.394Z,99.90
2023-05-04T12:21:53.568Z,99.90
2023-05-04T12:24:25.503Z,99.90
2023-05-04T12:26:56.000Z,99.90
2023-05-04T12:29:26.458Z,99.90
2023-05-04T12:31:57.013Z,99.90
2023-05-04T12:34:30.652Z,99.90
2023-05-04T12:37:02.344Z,99.90
2023-05-04T12:39:33.501Z,99.90
2023-05-04T12:42:04.444Z,99.90
2023-05-04T12:44:35.081Z,99.90
2023-05-04T12:47:05.592Z,99.90
2023-05-04T12:49:38.574Z,99.90
2023-05-04T12:52:09.327Z,99.90
2023-05-04T12:54:39.910Z,99.90
2023-05-04T12:57:11.293Z,99.90
2023-05-04T12:59:41.737Z,99.70
2023-05-04T13:02:12.297Z,99.90
2023-05-04T13:04:45.388Z,98.10
2023-05-04T13:07:15.851Z,99.30
2023-05-04T13:09:46.383Z,99.70
2023-05-04T13:12:16.814Z,99.80
2023-05-04T13:14:47.151Z,99.50
2023-05-04T13:17:18.541Z,99.10
2023-05-04T13:19:51.671Z,99.00
2023-05-04T13:22:22.089Z,98.50
2023-05-04T13:24:52.520Z,97.90
2023-05-04T13:27:22.994Z,97.70
2023-05-04T13:29:53.347Z,97.60
2023-05-04T13:32:23.891Z,95.60
2023-05-04T13:34:57.295Z,94.80
2023-05-04T13:37:28.060Z,95.60
2023-05-04T13:39:59.710Z,97.30
2023-05-04T13:42:30.233Z,96.00
2023-05-04T13:45:00.567Z,95.60
2023-05-04T13:47:31.060Z,95.60
2023-05-04T13:50:04.099Z,93.40
2023-05-04T13:52:35.740Z,93.90
2023-05-04T13:55:06.994Z,94.10
2023-05-04T13:57:37.577Z,94.30
2023-05-04T14:00:09.723Z,95.20
2023-05-04T14:02:43.194Z,96.40
2023-05-04T14:05:16.429Z,95.70
2023-05-04T14:07:46.898Z,94.40
2023-05-04T14:10:17.943Z,93.00
2023-05-04T14:12:48.939Z,93.30
2023-05-04T14:15:22.851Z,92.70
2023-05-04T14:17:53.356Z,94.80
2023-05-04T14:20:26.660Z,93.10
2023-05-04T14:22:57.128Z,92.20
2023-05-04T14:25:27.514Z,91.70
2023-05-04T14:27:57.945Z,91.70
2023-05-04T14:30:28.694Z,92.00
2023-05-04T14:32:59.488Z,92.30
2023-05-04T14:35:32.581Z,90.60
2023-05-04T14:38:03.020Z,90.50
2023-05-04T14:40:33.590Z,90.80
2023-05-04T14:43:04.396Z,90.20
2023-05-04T14:45:36.502Z,91.30
2023-05-04T14:48:08.995Z,91.00
2023-05-04T14:50:42.397Z,90.00
2023-05-04T14:53:12.969Z,90.00
2023-05-04T14:55:44.009Z,91.20
2023-05-04T14:58:15.860Z,89.20
2023-05-04T15:00:48.205Z,89.90
2023-05-04T15:03:18.768Z,91.00
2023-05-04T15:05:51.844Z,90.70
2023-05-04T15:08:22.332Z,90.20
2023-05-04T15:10:52.753Z,91.20
2023-05-04T15:13:23.155Z,89.20
2023-05-04T15:15:53.894Z,90.20
2023-05-04T15:18:24.381Z,90.00
2023-05-04T15:20:57.377Z,90.30
2023-05-04T15:23:27.856Z,88.70
2023-05-04T15:25:58.237Z,89.90
2023-05-04T15:28:28.735Z,90.20
2023-05-04T15:31:00.744Z,91.50
2023-05-04T15:33:32.500Z,89.70
2023-05-04T15:36:09.897Z,89.00
2023-05-04T15:38:40.640Z,90.30
2023-05-04T15:41:11.098Z,87.90
2023-05-04T15:43:41.627Z,90.20
2023-05-04T15:46:11.971Z,90.20
2023-05-04T15:48:42.684Z,90.20
2023-05-04T15:51:16.755Z,89.60
2023-05-04T15:53:47.522Z,90.80
2023-05-04T15:56:18.560Z,90.80
2023-05-04T15:58:48.948Z,91.20
2023-05-04T16:01:19.397Z,89.60
2023-05-04T16:03:49.976Z,90.40
2023-05-04T16:06:23.718Z,91.10
2023-05-04T16:08:54.450Z,91.30
2023-05-04T16:11:24.953Z,91.80
2023-05-04T16:13:55.816Z,91.20
2023-05-04T16:16:28.223Z,90.70
2023-05-04T16:18:58.647Z,91.20
2023-05-04T16:21:31.794Z,92.70
2023-05-04T16:24:02.270Z,91.20
2023-05-04T16:26:32.700Z,90.70
2023-05-04T16:29:03.228Z,91.40
2023-05-04T16:31:33.894Z,91.40
2023-05-04T16:34:04.398Z,91.30
2023-05-04T16:36:37.571Z,91.60
2023-05-04T16:39:08.070Z,91.70
2023-05-04T16:41:38.455Z,91.90
2023-05-04T16:44:09.031Z,92.00
2023-05-04T16:46:39.587Z,92.30
2023-05-04T16:49:11.955Z,92.80
2023-05-04T16:51:47.066Z,93.60
2023-05-04T16:54:19.420Z,93.60
2023-05-04T16:56:50.210Z,92.60
2023-05-04T16:59:20.614Z,93.50
2023-05-04T17:01:51.397Z,95.30
2023-05-04T17:04:21.956Z,93.70
2023-05-04T17:06:54.940Z,96.20
2023-05-04T17:09:25.398Z,92.80
2023-05-04T17:11:55.843Z,93.40
2023-05-04T17:14:26.335Z,95.20
2023-05-04T17:16:56.973Z,94.80
2023-05-04T17:19:27.321Z,94.10
2023-05-04T17:22:00.313Z,95.50
2023-05-04T17:24:30.867Z,93.30
2023-05-04T17:27:01.443Z,94.20
2023-05-04T17:29:31.896Z,94.40
2023-05-04T17:32:02.417Z,94.90
2023-05-04T17:34:32.960Z,94.10
2023-05-04T17:37:06.005Z,94.40
2023-05-04T17:39:36.487Z,94.80
2023-05-04T17:42:07.468Z,95.00
2023-05-04T17:44:37.864Z,95.60
2023-05-04T17:47:08.285Z,96.20
2023-05-04T17:49:38.816Z,96.10
2023-05-04T17:52:13.727Z,96.40
2023-05-04T17:54:44.235Z,96.30
2023-05-04T17:57:16.915Z,96.90
2023-05-04T17:59:47.958Z,97.40
2023-05-04T18:02:18.997Z,97.70
2023-05-04T18:04:49.689Z,97.50
2023-05-04T18:07:22.707Z,97.50
2023-05-04T18:09:53.214Z,97.50
2023-05-04T18:12:23.590Z,97.60
2023-05-04T18:14:54.577Z,97.90
2023-05-04T18:17:26.691Z,97.50
2023-05-04T18:19:58.847Z,97.50
2023-05-04T18:22:31.994Z,98.30
2023-05-04T18:25:03.416Z,99.30
2023-05-04T18:27:34.848Z,98.40
2023-05-04T18:30:07.257Z,98.80
2023-05-04T18:32:37.865Z,98.80
2023-05-04T18:35:09.530Z,98.70
2023-05-04T18:37:43.339Z,98.80
2023-05-04T18:40:15.540Z,99.00
2023-05-04T18:42:46.084Z,99.20
2023-05-04T18:45:17.024Z,99.90
2023-05-04T18:47:47.423Z,99.90
2023-05-04T18:50:17.967Z,99.90
2023-05-04T18:52:50.971Z,99.90
2023-05-04T18:55:21.681Z,99.90
2023-05-04T18:57:53.515Z,99.90
2023-05-04T19:00:26.688Z,99.90
2023-05-04T19:02:58.463Z,99.90
2023-05-04T19:05:28.951Z,99.90
2023-05-04T19:08:01.948Z,99.90
2023-05-04T19:10:32.554Z,99.90
2023-05-04T19:13:03.518Z,99.90
2023-05-04T19:15:36.277Z,99.90
2023-05-04T19:18:07.240Z,99.90
2023-05-04T19:20:41.457Z,99.90
2023-05-04T19:23:15.008Z,99.90
2023-05-04T19:25:45.648Z,99.90
2023-05-04T19:28:16.294Z,99.90
2023-05-04T19:30:46.717Z,99.90
2023-05-04T19:33:17.146Z,99.90
2023-05-04T19:35:47.940Z,99.90
2023-05-04T19:38:20.904Z,99.90
2023-05-04T19:40:53.181Z,99.90
2023-05-04T19:43:24.104Z,99.90
2023-05-04T19:45:55.737Z,99.90
2023-05-04T19:48:26.465Z,99.90
2023-05-04T19:50:56.955Z,99.90
2023-05-04T19:53:30.099Z,99.90
2023-05-04T19:56:00.673Z,99.90
2023-05-04T19:58:32.160Z,99.90
2023-05-04T20:01:02.680Z,99.90
2023-05-04T20:03:33.930Z,99.90
2023-05-04T20:06:04.460Z,99.90
2023-05-04T20:08:37.458Z,99.90
2023-05-04T20:11:07.949Z,99.90
2023-05-04T20:13:38.493Z,99.90
2023-05-04T20:16:09.321Z,99.90
2023-05-04T20:18:39.684Z,99.90
2023-05-04T20:21:10.226Z,99.90
2023-05-04T20:23:43.832Z,99.90
2023-05-04T20:26:14.333Z,99.90
2023-05-04T20:28:44.731Z,99.90
2023-05-04T20:31:15.143Z,99.90
2023-05-04T20:33:45.510Z,99.90
2023-05-04T20:36:15.906Z,99.90
2023-05-04T20:38:48.903Z,99.90
2023-05-04T20:41:19.433Z,99.90
2023-05-04T20:43:50.395Z,99.90
2023-05-04T20:46:20.871Z,99.90
2023-05-04T20:48:51.298Z,99.90
2023-05-04T20:51:21.809Z,99.90
2023-05-04T20:53:54.759Z,99.90
2023-05-04T20:56:25.133Z,99.90
2023-05-04T20:58:55.622Z,99.90
2023-05-04T21:01:26.223Z,99.90
2023-05-04T21:03:56.785Z,99.90
2023-05-04T21:06:27.445Z,99.90
2023-05-04T21:09:02.166Z,99.90
2023-05-04T21:11:36.824Z,99.90
2023-05-04T21:14:07.952Z,99.90
2023-05-04T21:16:38.462Z,99.90
2023-05-04T21:19:08.796Z,99.90
2023-05-04T21:21:41.571Z,99.90
2023-05-04T21:24:18.156Z,99.90
2023-05-04T21:26:48.780Z,99.90
2023-05-04T21:29:19.167Z,99.90
2023-05-04T21:31:51.331Z,99.90
2023-05-04T21:34:22.471Z,99.90
2023-05-04T21:36:53.354Z,99.90
2023-05-04T21:39:26.509Z,99.90
2023-05-04T21:41:56.900Z,99.90
2023-05-04T21:44:27.890Z,99.90
2023-05-04T21:46:58.935Z,99.90
2023-05-04T21:49:29.356Z,99.90
2023-05-04T21:51:59.839Z,99.90
2023-05-04T21:54:34.332Z,99.90
2023-05-04T21:57:05.255Z,99.90
2023-05-04T21:59:36.569Z,99.90
2023-05-04T22:02:07.338Z,99.90
2023-05-04T22:04:37.693Z,99.90
2023-05-04T22:07:08.097Z,99.90
2023-05-04T22:09:41.134Z,99.90
2023-05-04T22:12:12.197Z,99.90
2023-05-04T22:14:43.416Z,99.90
2023-05-04T22:17:14.375Z,99.90
2023-05-04T22:19:45.259Z,99.90
2023-05-04T22:22:15.893Z,99.90
2023-05-04T22:24:48.897Z,99.90
2023-05-04T22:27:19.334Z,99.90
2023-05-04T22:29:49.793Z,99.90
2023-05-04T22:32:20.806Z,99.90
2023-05-04T22:34:51.366Z,99.90
2023-05-04T22:37:22.650Z,99.90
2023-05-04T22:39:55.640Z,99.90
2023-05-04T22:42:26.165Z,99.90
2023-05-04T22:44:56.944Z,99.90
2023-05-04T22:47:27.368Z,99.90
2023-05-04T22:49:58.191Z,99.90
2023-05-04T22:52:29.073Z,99.90
2023-05-04T22:55:02.054Z,99.90
2023-05-04T22:57:32.520Z,99.90
2023-05-04T23:00:05.278Z,99.90
2023-05-04T23:02:36.634Z,99.90
2023-05-04T23:05:07.870Z,99.90
2023-05-04T23:07:38.562Z,99.90
2023-05-04T23:10:12.880Z,99.90
2023-05-04T23:12:43.810Z,99.90
2023-05-04T23:15:14.630Z,99.90
2023-05-04T23:17:45.555Z,99.90
2023-05-04T23:20:17.087Z,99.90
2023-05-04T23:22:47.460Z,99.90
2023-05-04T23:25:20.449Z,99.90
2023-05-04T23:27:50.835Z,99.90
2023-05-04T23:30:21.456Z,99.90
2023-05-04T23:32:51.852Z,99.90
2023-05-04T23:35:23.020Z,99.90
2023-05-04T23:37:54.533Z,99.90
2023-05-04T23:40:27.772Z,99.90
2023-05-04T23:42:58.258Z,99.90
2023-05-04T23:45:28.705Z,99.90
2023-05-04T23:47:59.172Z,99.90
2023-05-04T23:50:29.565Z,99.90
2023-05-04T23:53:00.290Z,99.90
2023-05-04T23:55:33.811Z,99.90
2023-05-04T23:58:05.303Z,99.90
